Time;durP1;ratioP1;P1;durP2;ratioP2;P2;SDS_P1;SDS_P2;PMS_P1;PMS_P2;Temp;Humidity;BMP_temperature;BMP_pressure;BME280_temperature;BME280_humidity;BME280_pressure;Samples;Min_cycle;Max_cycle;Signal;HPM_P1;HPM_P2
2022/06/17 00:02:13;;;;;;;;;;;;;;;15.27;100.00;102360.88;2613755;36;20332;-58
2022/06/17 00:04:41;;;;;;;;;;;;;;;15.29;100.00;102360.72;2613348;36;20448;-60
2022/06/17 00:07:13;;;;;;;;;;;;;;;15.23;100.00;102364.81;2611871;36;19954;-62
2022/06/17 00:09:42;;;;;;;;;;;;;;;15.27;100.00;102357.25;2613951;36;20503;-59
2022/06/17 00:12:14;;;;;;;;;;;;;;;15.27;100.00;102350.00;2611625;36;19958;-62
2022/06/17 00:17:25;;;;;;;;;;;;;;;15.36;100.00;102353.78;2613894;36;19950;-61
2022/06/17 00:19:53;;;;;;;;;;;;;;;15.38;100.00;102349.09;2613214;36;20351;-62
2022/06/17 00:22:21;;;;;;;;;;;;;;;15.51;100.00;102351.63;2613209;36;19965;-60
2022/06/17 00:24:51;;;;;;;;;;;;;;;15.47;100.00;102353.72;2611358;36;19954;-59
2022/06/17 00:27:19;;;;;;;;;;;;;;;15.57;100.00;102362.78;2612640;36;19967;-59
2022/06/17 00:29:47;;;;;;;;;;;;;;;15.46;100.00;102367.41;2612858;36;19950;-59
2022/06/17 00:32:15;;;;;;;;;;;;;;;15.43;100.00;102368.56;2613926;36;19950;-58
2022/06/17 00:34:46;;;;;;;;;;;;;;;15.40;100.00;102375.09;2614347;36;20411;-59
2022/06/17 00:37:16;;;;;;;;;;;;;;;15.42;100.00;102373.09;2614289;36;20355;-59
2022/06/17 00:39:45;;;;;;;;;;;;;;;15.43;100.00;102371.28;2613657;36;19946;-62
2022/06/17 00:42:14;;;;;;;;;;;;;;;15.53;100.00;102364.06;2613588;36;19946;-62
2022/06/17 00:44:45;;;;;;;;;;;;;;;15.54;100.00;102370.34;2605849;36;19954;-59
2022/06/17 00:47:20;;;;;;;;;;;;;;;15.44;100.00;102374.84;2607715;36;19946;-59
2022/06/17 00:49:54;;;;;;;;;;;;;;;15.45;100.00;102373.84;2611771;36;19962;-59
2022/06/17 00:52:24;;;;;;;;;;;;;;;15.47;100.00;102363.72;2612584;36;20321;-62
2022/06/17 00:54:55;;;;;;;;;;;;;;;15.45;100.00;102360.28;2612257;36;19958;-61
2022/06/17 00:57:28;;;;;;;;;;;;;;;15.38;100.00;102357.22;2613029;36;19953;-58
2022/06/17 01:00:03;;;;;;;;;;;;;;;15.31;100.00;102351.47;2613657;36;19958;-62
2022/06/17 01:02:32;;;;;;;;;;;;;;;15.35;100.00;102361.06;2612934;31;19953;-60
2022/06/17 01:05:04;;;;;;;;;;;;;;;15.46;100.00;102360.16;2614259;36;20002;-58
2022/06/17 01:07:35;;;;;;;;;;;;;;;15.51;100.00;102365.19;2613123;36;20473;-60
2022/06/17 01:10:08;;;;;;;;;;;;;;;15.59;100.00;102368.06;2612078;36;19958;-61
2022/06/17 01:12:39;;;;;;;;;;;;;;;15.55;100.00;102361.22;2613752;36;20406;-62
2022/06/17 01:15:09;;;;;;;;;;;;;;;15.52;100.00;102367.75;2613818;36;19947;-59
2022/06/17 01:17:39;;;;;;;;;;;;;;;15.61;100.00;102360.69;2613923;36;19975;-61
2022/06/17 01:20:11;;;;;;;;;;;;;;;15.58;100.00;102363.66;2612876;36;20492;-58
2022/06/17 01:22:43;;;;;;;;;;;;;;;15.57;100.00;102360.06;2612952;36;19954;-59
2022/06/17 01:25:13;;;;;;;;;;;;;;;15.66;100.00;102358.41;2612826;36;19951;-63
2022/06/17 01:27:42;;;;;;;;;;;;;;;15.64;100.00;102359.56;2613774;36;19981;-62
2022/06/17 01:30:12;;;;;;;;;;;;;;;15.62;100.00;102350.69;2613580;36;19981;-59
2022/06/17 01:32:47;;;;;;;;;;;;;;;15.59;100.00;102354.50;2613576;36;19950;-59
2022/06/17 01:35:16;;;;;;;;;;;;;;;15.50;100.00;102350.75;2613370;31;19981;-58
2022/06/17 01:37:46;;;;;;;;;;;;;;;15.44;100.00;102356.69;2613031;36;19957;-59
2022/06/17 01:40:16;;;;;;;;;;;;;;;15.46;100.00;102353.84;2613252;36;19947;-60
2022/06/17 01:42:44;;;;;;;;;;;;;;;15.47;100.00;102361.00;2613998;36;19951;-62
2022/06/17 01:45:13;;;;;;;;;;;;;;;15.26;100.00;102361.84;2613148;36;20467;-60
2022/06/17 01:47:42;;;;;;;;;;;;;;;15.29;100.00;102366.16;2607304;36;20669;-62
2022/06/17 01:50:13;;;;;;;;;;;;;;;15.27;100.00;102359.97;2613659;36;20439;-61
2022/06/17 01:52:43;;;;;;;;;;;;;;;15.20;100.00;102362.38;2614320;36;20673;-60
2022/06/17 01:55:16;;;;;;;;;;;;;;;15.22;100.00;102354.94;2606338;36;19991;-59
2022/06/17 01:57:47;;;;;;;;;;;;;;;15.26;100.00;102356.41;2613200;36;20444;-59
2022/06/17 02:00:18;;;;;;;;;;;;;;;15.28;100.00;102353.56;2613681;31;19977;-62
2022/06/17 02:02:48;;;;;;;;;;;;;;;15.36;100.00;102351.94;2613848;31;19951;-62
2022/06/17 02:05:16;;;;;;;;;;;;;;;15.42;100.00;102355.97;2613464;36;19946;-60
2022/06/17 02:07:48;;;;;;;;;;;;;;;15.46;100.00;102356.56;2613877;36;19981;-59
2022/06/17 02:10:19;;;;;;;;;;;;;;;15.45;100.00;102350.28;2613447;36;19950;-61
2022/06/17 02:12:47;;;;;;;;;;;;;;;15.42;100.00;102345.13;2613000;36;19950;-62
2022/06/17 02:15:16;;;;;;;;;;;;;;;15.45;100.00;102347.56;2613775;36;20451;-60
2022/06/17 02:17:46;;;;;;;;;;;;;;;15.36;100.00;102334.81;2612781;36;19981;-59
2022/06/17 02:20:15;;;;;;;;;;;;;;;15.27;100.00;102336.44;2613789;36;19954;-58
2022/06/17 02:22:43;;;;;;;;;;;;;;;15.27;100.00;102320.16;2613921;36;20336;-59
2022/06/17 02:25:12;;;;;;;;;;;;;;;15.25;100.00;102324.84;2614354;36;19954;-62
2022/06/17 02:27:45;;;;;;;;;;;;;;;15.27;100.00;102328.31;2614112;36;20423;-60
2022/06/17 02:30:14;;;;;;;;;;;;;;;15.29;100.00;102323.59;2614223;36;19951;-58
2022/06/17 02:32:42;;;;;;;;;;;;;;;15.49;100.00;102321.03;2614034;36;20491;-58
2022/06/17 02:35:17;;;;;;;;;;;;;;;15.53;100.00;102331.50;2613765;36;19981;-60
2022/06/17 02:37:45;;;;;;;;;;;;;;;15.48;100.00;102330.19;2613536;36;19954;-59
2022/06/17 02:40:24;;;;;;;;;;;;;;;15.59;100.00;102338.22;2614146;36;19947;-64
2022/06/17 02:42:55;;;;;;;;;;;;;;;15.55;100.00;102334.09;2614544;36;19985;-58
2022/06/17 02:45:25;;;;;;;;;;;;;;;15.60;100.00;102337.25;2614058;36;20005;-59
2022/06/17 02:47:54;;;;;;;;;;;;;;;15.47;100.00;102326.56;2612694;36;19950;-58
2022/06/17 02:50:24;;;;;;;;;;;;;;;15.39;100.00;102335.38;2614463;36;20515;-61
2022/06/17 02:52:54;;;;;;;;;;;;;;;15.31;100.00;102328.91;2614267;36;19959;-61
2022/06/17 02:55:26;;;;;;;;;;;;;;;15.27;100.00;102336.44;2607082;36;19977;-62
2022/06/17 02:57:59;;;;;;;;;;;;;;;15.12;100.00;102338.63;2607056;31;19981;-59
2022/06/17 03:00:27;;;;;;;;;;;;;;;15.04;100.00;102346.53;2614753;36;20371;-59
2022/06/17 03:02:57;;;;;;;;;;;;;;;14.86;100.00;102343.50;2613664;36;19947;-60
2022/06/17 03:05:27;;;;;;;;;;;;;;;14.86;100.00;102348.94;2613017;36;19973;-58
2022/06/17 03:07:57;;;;;;;;;;;;;;;14.82;100.00;102342.03;2614103;36;19966;-61
2022/06/17 03:10:29;;;;;;;;;;;;;;;14.81;100.00;102351.16;2613975;36;19946;-58
2022/06/17 03:13:03;;;;;;;;;;;;;;;14.74;100.00;102344.50;2615272;31;20356;-59
2022/06/17 03:15:31;;;;;;;;;;;;;;;14.68;100.00;102354.88;2613307;36;20002;-58
2022/06/17 03:18:00;;;;;;;;;;;;;;;14.63;100.00;102350.81;2613865;36;19977;-60
2022/06/17 03:20:30;;;;;;;;;;;;;;;14.61;100.00;102345.53;2613951;36;19951;-59
2022/06/17 03:23:03;;;;;;;;;;;;;;;14.59;100.00;102343.91;2614863;36;20454;-62
2022/06/17 03:25:34;;;;;;;;;;;;;;;14.62;100.00;102336.44;2613405;31;19958;-58
2022/06/17 03:28:09;;;;;;;;;;;;;;;14.66;100.00;102345.16;2613749;36;19951;-58
2022/06/17 03:30:40;;;;;;;;;;;;;;;14.62;100.00;102347.28;2614224;36;20760;-58
2022/06/17 03:33:11;;;;;;;;;;;;;;;14.54;100.00;102352.41;2614509;31;20439;-60
2022/06/17 03:35:40;;;;;;;;;;;;;;;14.57;100.00;102344.03;2614449;36;19954;-60
2022/06/17 03:38:14;;;;;;;;;;;;;;;14.60;100.00;102345.63;2612399;36;19951;-58
2022/06/17 03:40:44;;;;;;;;;;;;;;;14.61;100.00;102350.97;2614407;36;19970;-59
2022/06/17 03:43:18;;;;;;;;;;;;;;;14.60;100.00;102349.19;2614025;36;19950;-59
2022/06/17 03:45:49;;;;;;;;;;;;;;;14.68;100.00;102348.63;2614696;31;19947;-58
2022/06/17 03:48:23;;;;;;;;;;;;;;;14.78;100.00;102352.28;2613237;36;20004;-60
2022/06/17 03:50:51;;;;;;;;;;;;;;;14.96;100.00;102355.31;2614420;36;20411;-61
2022/06/17 03:53:24;;;;;;;;;;;;;;;15.11;100.00;102347.72;2613066;36;19950;-61
2022/06/17 03:55:53;;;;;;;;;;;;;;;15.11;100.00;102349.59;2614301;36;19953;-58
2022/06/17 03:58:24;;;;;;;;;;;;;;;15.26;100.00;102351.00;2607725;31;20332;-59
2022/06/17 04:00:53;;;;;;;;;;;;;;;15.41;100.00;102337.97;2608011;36;20315;-58
2022/06/17 04:03:23;;;;;;;;;;;;;;;15.40;100.00;102339.84;2614201;36;20380;-58
2022/06/17 04:06:01;;;;;;;;;;;;;;;15.48;100.00;102347.31;2613639;36;19946;-63
2022/06/17 04:08:29;;;;;;;;;;;;;;;15.63;100.00;102347.81;2614224;36;20371;-58
2022/06/17 04:10:57;;;;;;;;;;;;;;;15.66;100.00;102342.13;2614218;36;19954;-63
2022/06/17 04:13:30;;;;;;;;;;;;;;;15.69;100.00;102336.44;2613390;36;19946;-58
2022/06/17 04:16:02;;;;;;;;;;;;;;;15.74;100.00;102345.06;2613454;36;19950;-58
2022/06/17 04:18:30;;;;;;;;;;;;;;;15.72;100.00;102338.03;2614066;31;19946;-62
2022/06/17 04:21:14;;;;;;;;;;;;;;;15.83;100.00;102342.56;2614155;54;19947;-58
2022/06/17 04:23:43;;;;;;;;;;;;;;;15.85;100.00;102341.41;2613424;31;19950;-58
2022/06/17 04:26:15;;;;;;;;;;;;;;;15.90;100.00;102339.19;2612810;36;19946;-58
2022/06/17 04:28:48;;;;;;;;;;;;;;;16.08;100.00;102333.13;2613331;36;21065;-58
2022/06/17 04:31:18;;;;;;;;;;;;;;;16.26;100.00;102328.75;2614264;36;20359;-59
2022/06/17 04:33:48;;;;;;;;;;;;;;;16.35;100.00;102327.06;2613952;31;20436;-59
2022/06/17 04:36:20;;;;;;;;;;;;;;;16.57;100.00;102338.72;2613652;36;19955;-59
2022/06/17 04:38:50;;;;;;;;;;;;;;;16.52;100.00;102332.81;2613583;36;19951;-59
2022/06/17 04:41:20;;;;;;;;;;;;;;;16.57;100.00;102333.28;2613832;36;19950;-60
2022/06/17 04:43:53;;;;;;;;;;;;;;;16.75;100.00;102333.44;2612810;36;19947;-60
2022/06/17 04:46:25;;;;;;;;;;;;;;;16.88;100.00;102334.06;2613821;36;19954;-62
2022/06/17 04:48:57;;;;;;;;;;;;;;;16.87;100.00;102332.38;2613837;36;19947;-63
2022/06/17 04:51:25;;;;;;;;;;;;;;;16.76;100.00;102330.59;2614241;36;19997;-61
2022/06/17 04:53:54;;;;;;;;;;;;;;;16.96;100.00;102327.91;2613397;36;19954;-60
2022/06/17 04:56:29;;;;;;;;;;;;;;;17.08;100.00;102321.34;2612358;36;19950;-63
2022/06/17 04:59:00;;;;;;;;;;;;;;;17.11;100.00;102318.34;2613829;36;19953;-60
2022/06/17 05:01:30;;;;;;;;;;;;;;;17.16;100.00;102312.47;2606877;36;19950;-62
2022/06/17 05:04:01;;;;;;;;;;;;;;;17.29;100.00;102323.91;2613634;36;19951;-59
2022/06/17 05:06:30;;;;;;;;;;;;;;;17.34;100.00;102321.63;2607122;36;20425;-60
2022/06/17 05:09:00;;;;;;;;;;;;;;;17.38;100.00;102319.44;2613804;36;20356;-60
2022/06/17 05:11:31;;;;;;;;;;;;;;;17.31;100.00;102323.75;2613153;36;19947;-60
2022/06/17 05:14:04;;;;;;;;;;;;;;;17.48;100.00;102320.28;2613022;36;19951;-59
2022/06/17 05:16:32;;;;;;;;;;;;;;;17.48;100.00;102320.28;2612483;36;19982;-62
2022/06/17 05:19:00;;;;;;;;;;;;;;;17.59;100.00;102323.84;2613495;36;19947;-59
2022/06/17 05:21:28;;;;;;;;;;;;;;;17.64;100.00;102325.13;2614236;36;19947;-58
2022/06/17 05:23:57;;;;;;;;;;;;;;;17.82;100.00;102318.94;2613102;36;20355;-58
2022/06/17 05:26:25;;;;;;;;;;;;;;;17.96;100.00;102313.03;2612197;36;19951;-58
2022/06/17 05:28:54;;;;;;;;;;;;;;;17.92;100.00;102313.47;2613294;36;19954;-57
2022/06/17 05:31:27;;;;;;;;;;;;;;;18.09;100.00;102306.38;2612706;36;20448;-60
2022/06/17 05:33:55;;;;;;;;;;;;;;;18.19;100.00;102305.31;2613676;36;19950;-61
2022/06/17 05:36:23;;;;;;;;;;;;;;;18.24;100.00;102314.91;2613594;31;20330;-60
2022/06/17 05:38:51;;;;;;;;;;;;;;;18.33;100.00;102314.00;2613447;36;19962;-58
2022/06/17 05:41:22;;;;;;;;;;;;;;;18.39;100.00;102314.25;2613060;36;19951;-59
2022/06/17 05:43:50;;;;;;;;;;;;;;;18.60;100.00;102304.09;2613481;36;19950;-59
2022/06/17 05:46:19;;;;;;;;;;;;;;;18.60;100.00;102306.84;2612923;36;20439;-59
2022/06/17 05:48:49;;;;;;;;;;;;;;;18.67;100.00;102308.78;2613107;36;20404;-60
2022/06/17 05:51:18;;;;;;;;;;;;;;;18.60;100.00;102309.56;2610664;36;20468;-59
2022/06/17 05:53:46;;;;;;;;;;;;;;;18.55;100.00;102308.16;2611183;36;19966;-57
2022/06/17 05:56:14;;;;;;;;;;;;;;;18.65;100.00;102313.50;2609537;36;19958;-60
2022/06/17 05:58:42;;;;;;;;;;;;;;;18.71;100.00;102306.59;2614680;36;19954;-58
2022/06/17 06:01:11;;;;;;;;;;;;;;;18.99;100.00;102299.25;2615083;36;20022;-58
2022/06/17 06:03:39;;;;;;;;;;;;;;;19.21;100.00;102289.72;2614608;31;19954;-59
2022/06/17 06:06:09;;;;;;;;;;;;;;;19.23;100.00;102295.84;2606829;36;19954;-57
2022/06/17 06:08:37;;;;;;;;;;;;;;;19.27;100.00;102285.47;2614703;36;20340;-58
2022/06/17 06:11:06;;;;;;;;;;;;;;;19.50;100.00;102280.34;2609229;36;19950;-58
2022/06/17 06:13:34;;;;;;;;;;;;;;;19.45;100.00;102277.25;2615076;36;19958;-58
2022/06/17 06:16:03;;;;;;;;;;;;;;;19.64;100.00;102270.72;2614709;36;19973;-58
2022/06/17 06:18:32;;;;;;;;;;;;;;;19.73;100.00;102280.66;2614357;36;19950;-58
2022/06/17 06:21:04;;;;;;;;;;;;;;;19.69;100.00;102286.63;2614958;36;19975;-58
2022/06/17 06:23:35;;;;;;;;;;;;;;;19.52;100.00;102283.78;2615216;36;19953;-55
2022/06/17 06:26:03;;;;;;;;;;;;;;;19.66;100.00;102284.22;2615062;36;20047;-56
2022/06/17 06:28:32;;;;;;;;;;;;;;;19.64;100.00;102286.22;2613913;36;20002;-58
2022/06/17 06:31:17;;;;;;;;;;;;;;;19.70;100.00;102275.53;2615180;36;19955;-59
2022/06/17 06:33:45;;;;;;;;;;;;;;;19.90;100.00;102278.91;2613599;36;19962;-58
2022/06/17 06:36:13;;;;;;;;;;;;;;;20.06;100.00;102277.28;2614086;36;20724;-60
2022/06/17 06:38:44;;;;;;;;;;;;;;;20.38;100.00;102264.75;2615281;31;20303;-58
2022/06/17 06:41:12;;;;;;;;;;;;;;;20.38;100.00;102262.88;2611315;31;19974;-59
2022/06/17 06:43:41;;;;;;;;;;;;;;;20.75;100.00;102269.81;2613562;36;19951;-57
2022/06/17 06:46:10;;;;;;;;;;;;;;;20.73;100.00;102265.50;2613354;36;19951;-61
2022/06/17 06:48:38;;;;;;;;;;;;;;;20.86;100.00;102252.19;2612838;36;19955;-59
2022/06/17 06:51:06;;;;;;;;;;;;;;;20.74;100.00;102262.59;2614126;36;19947;-59
2022/06/17 06:53:35;;;;;;;;;;;;;;;21.14;100.00;102257.31;2614414;36;20317;-64
2022/06/17 06:56:07;;;;;;;;;;;;;;;20.83;100.00;102260.72;2613762;36;20426;-62
2022/06/17 06:58:35;;;;;;;;;;;;;;;20.93;100.00;102261.41;2614403;31;20449;-61
2022/06/17 07:01:03;;;;;;;;;;;;;;;21.03;100.00;102244.00;2614409;36;20276;-59
2022/06/17 07:03:32;;;;;;;;;;;;;;;21.12;100.00;102251.16;2614306;36;19979;-56
2022/06/17 07:06:01;;;;;;;;;;;;;;;21.44;100.00;102254.91;2614339;36;19950;-59
2022/06/17 07:08:30;;;;;;;;;;;;;;;21.33;100.00;102251.50;2612531;36;19959;-58
2022/06/17 07:10:59;;;;;;;;;;;;;;;21.11;100.00;102253.06;2607759;36;20421;-61
2022/06/17 07:13:30;;;;;;;;;;;;;;;21.05;100.00;102252.88;2607897;36;19954;-58
2022/06/17 07:15:59;;;;;;;;;;;;;;;21.27;100.00;102246.69;2613785;36;19977;-58
2022/06/17 07:18:29;;;;;;;;;;;;;;;21.34;100.00;102252.34;2614008;36;19951;-58
2022/06/17 07:20:58;;;;;;;;;;;;;;;21.71;100.00;102248.16;2612769;36;20356;-60
2022/06/17 07:23:29;;;;;;;;;;;;;;;22.23;100.00;102252.22;2613301;36;20459;-63
2022/06/17 07:25:58;;;;;;;;;;;;;;;22.51;100.00;102243.53;2613490;36;19958;-59
2022/06/17 07:28:27;;;;;;;;;;;;;;;22.37;100.00;102247.91;2612307;36;19947;-64
2022/06/17 07:30:58;;;;;;;;;;;;;;;21.98;100.00;102262.47;2612893;36;19951;-63
2022/06/17 07:33:27;;;;;;;;;;;;;;;21.74;100.00;102258.78;2612814;36;19950;-64
2022/06/17 07:35:57;;;;;;;;;;;;;;;21.98;100.00;102265.19;2612717;36;20432;-62
2022/06/17 07:41:12;;;;;;;;;;;;;;;22.16;100.00;102273.19;2613250;36;19946;-62
2022/06/17 07:43:40;;;;;;;;;;;;;;;22.35;100.00;102267.28;2613261;36;19950;-59
2022/06/17 07:46:10;;;;;;;;;;;;;;;22.55;100.00;102266.81;2613525;31;19946;-59
2022/06/17 07:48:40;;;;;;;;;;;;;;;22.56;100.00;102279.50;2614042;36;20729;-59
2022/06/17 07:51:09;;;;;;;;;;;;;;;22.41;100.00;102282.19;2614249;36;20061;-59
2022/06/17 07:53:42;;;;;;;;;;;;;;;22.71;100.00;102280.44;2614308;54;19969;-59
2022/06/17 07:56:15;;;;;;;;;;;;;;;22.65;100.00;102289.41;2612371;36;22252;-58
2022/06/17 07:58:43;;;;;;;;;;;;;;;22.65;100.00;102283.06;2613120;31;19951;-58
2022/06/17 08:01:15;;;;;;;;;;;;;;;22.68;100.00;102291.78;2614443;36;19946;-60
2022/06/17 08:03:44;;;;;;;;;;;;;;;22.73;100.00;102289.34;2613746;36;19950;-59
2022/06/17 08:06:13;;;;;;;;;;;;;;;22.81;100.00;102295.81;2614175;36;20409;-61
2022/06/17 08:08:41;;;;;;;;;;;;;;;23.05;99.92;102303.84;2613686;36;20081;-64
2022/06/17 08:11:10;;;;;;;;;;;;;;;23.09;100.00;102296.13;2613997;36;19970;-59
2022/06/17 08:13:38;;;;;;;;;;;;;;;23.06;100.00;102294.59;2607227;36;19950;-59
2022/06/17 08:16:08;;;;;;;;;;;;;;;23.49;99.24;102301.47;2613528;36;20793;-62
2022/06/17 08:18:39;;;;;;;;;;;;;;;23.26;97.01;102289.47;2610024;31;20321;-60
2022/06/17 08:21:07;;;;;;;;;;;;;;;23.22;92.42;102290.03;2611549;36;19991;-62
2022/06/17 08:23:35;;;;;;;;;;;;;;;23.47;91.47;102306.28;2612653;36;19977;-59
2022/06/17 08:26:03;;;;;;;;;;;;;;;23.58;96.42;102303.06;2612856;31;19947;-61
2022/06/17 08:28:31;;;;;;;;;;;;;;;23.64;94.92;102294.06;2611307;31;20422;-65
2022/06/17 08:31:00;;;;;;;;;;;;;;;23.69;91.02;102291.63;2613135;36;19951;-59
2022/06/17 08:33:29;;;;;;;;;;;;;;;23.65;88.21;102290.28;2614212;31;20518;-63
2022/06/17 08:36:04;;;;;;;;;;;;;;;23.79;84.35;102285.81;2613242;31;20317;-60
2022/06/17 08:38:33;;;;;;;;;;;;;;;24.07;85.14;102279.69;2613067;36;20075;-60
2022/06/17 08:41:01;;;;;;;;;;;;;;;23.93;88.45;102292.41;2613371;36;19953;-59
2022/06/17 08:43:38;;;;;;;;;;;;;;;23.72;85.56;102290.41;2613136;36;19981;-58
2022/06/17 08:46:14;;;;;;;;;;;;;;;24.10;84.59;102277.41;2611632;36;19955;-58
2022/06/17 08:48:54;;;;;;;;;;;;;;;24.08;82.00;102279.50;2612597;36;20076;-65
2022/06/17 08:51:31;;;;;;;;;;;;;;;24.51;86.97;102272.38;2613448;36;19993;-58
2022/06/17 08:54:17;;;;;;;;;;;;;;;24.34;83.85;102277.25;2613058;36;19953;-58
2022/06/17 08:56:49;;;;;;;;;;;;;;;24.34;92.66;102271.75;2612383;36;19985;-58
2022/06/17 08:59:23;;;;;;;;;;;;;;;24.41;87.81;102273.56;2612243;36;19947;-59
2022/06/17 09:01:55;;;;;;;;;;;;;;;24.33;81.21;102267.31;2612788;36;19955;-59
2022/06/17 09:04:30;;;;;;;;;;;;;;;24.55;83.71;102274.56;2612904;36;19995;-58
2022/06/17 09:07:07;;;;;;;;;;;;;;;24.93;83.76;102270.75;2613651;36;19986;-58
2022/06/17 09:09:44;;;;;;;;;;;;;;;24.77;80.57;102278.19;2613625;36;19989;-58
2022/06/17 09:12:16;;;;;;;;;;;;;;;24.57;84.81;102272.47;2614261;36;19989;-59
2022/06/17 09:14:48;;;;;;;;;;;;;;;24.48;79.24;102265.38;2613444;36;19989;-60
2022/06/17 09:17:24;;;;;;;;;;;;;;;24.56;82.36;102264.38;2614243;36;20352;-58
2022/06/17 09:19:55;;;;;;;;;;;;;;;24.63;78.51;102254.34;2606409;36;19955;-59
2022/06/17 09:22:28;;;;;;;;;;;;;;;25.01;81.25;102259.56;2613310;36;19959;-60
2022/06/17 09:24:56;;;;;;;;;;;;;;;25.16;78.50;102262.22;2612412;36;19958;-59
2022/06/17 09:27:27;;;;;;;;;;;;;;;24.89;75.80;102266.66;2612239;36;19995;-58
2022/06/17 09:29:57;;;;;;;;;;;;;;;24.50;77.39;102255.03;2604380;36;19981;-59
2022/06/17 09:32:28;;;;;;;;;;;;;;;25.01;76.10;102259.56;2613037;36;19977;-65
2022/06/17 09:35:04;;;;;;;;;;;;;;;25.26;73.45;102259.13;2613295;36;20471;-63
2022/06/17 09:37:38;;;;;;;;;;;;;;;25.51;76.19;102263.19;2612655;36;19957;-59
2022/06/17 09:40:08;;;;;;;;;;;;;;;25.29;74.70;102262.34;2612247;31;19954;-59
2022/06/17 09:42:40;;;;;;;;;;;;;;;25.62;76.29;102263.69;2613728;31;19946;-63
2022/06/17 09:45:11;;;;;;;;;;;;;;;25.37;70.25;102264.16;2612785;31;19954;-58
2022/06/17 09:47:41;;;;;;;;;;;;;;;25.61;71.36;102267.47;2612959;36;19946;-59
2022/06/17 09:50:12;;;;;;;;;;;;;;;25.77;72.43;102266.31;2630488;36;19983;-66
2022/06/17 09:52:45;;;;;;;;;;;;;;;25.55;70.63;102263.63;2611905;36;20504;-63
2022/06/17 09:55:16;;;;;;;;;;;;;;;25.60;71.43;102251.97;2612138;36;19946;-61
2022/06/17 09:57:46;;;;;;;;;;;;;;;26.25;71.10;102252.56;2612259;36;19946;-60
2022/06/17 10:00:16;;;;;;;;;;;;;;;26.29;69.29;102247.47;2612702;36;19977;-62
2022/06/17 10:02:48;;;;;;;;;;;;;;;26.18;68.50;102252.53;2613046;36;19954;-61
2022/06/17 10:05:28;;;;;;;;;;;;;;;26.46;70.57;102251.56;2612404;36;20455;-61
2022/06/17 10:08:02;;;;;;;;;;;;;;;26.72;68.44;102241.63;2612886;36;19980;-62
2022/06/17 10:10:33;;;;;;;;;;;;;;;26.80;71.00;102246.13;2613425;36;19979;-60
2022/06/17 10:13:09;;;;;;;;;;;;;;;26.56;69.43;102246.47;2612607;31;20494;-60
2022/06/17 10:15:40;;;;;;;;;;;;;;;26.75;68.22;102249.50;2613483;31;20444;-59
2022/06/17 10:21:03;;;;;;;;;;;;;;;27.09;72.50;102253.13;2611723;36;20825;-59
2022/06/17 10:23:39;;;;;;;;;;;;;;;27.52;67.33;102251.84;2612167;36;19966;-64
2022/06/17 10:26:15;;;;;;;;;;;;;;;26.82;66.16;102253.13;2613028;31;19977;-59
2022/06/17 10:28:53;;;;;;;;;;;;;;;26.55;66.99;102241.16;2612019;31;19946;-62
2022/06/17 10:31:26;;;;;;;;;;;;;;;26.40;66.70;102242.19;2613479;31;19992;-63
2022/06/17 10:33:57;;;;;;;;;;;;;;;26.46;65.16;102223.94;2612775;36;19957;-58
2022/06/17 10:36:25;;;;;;;;;;;;;;;25.89;68.36;102226.91;2612451;36;19957;-61
2022/06/17 10:38:56;;;;;;;;;;;;;;;25.84;69.52;102212.88;2606426;36;19954;-61
2022/06/17 10:41:25;;;;;;;;;;;;;;;26.48;73.14;102204.41;2613421;36;20471;-64
2022/06/17 10:43:54;;;;;;;;;;;;;;;26.93;70.29;102222.09;2613420;36;19972;-60
2022/06/17 10:46:25;;;;;;;;;;;;;;;26.82;60.14;102206.16;2612694;36;19963;-65
2022/06/17 10:48:57;;;;;;;;;;;;;;;26.92;65.01;102214.88;2614949;31;19983;-59
2022/06/17 10:51:25;;;;;;;;;;;;;;;26.74;57.99;102209.16;2614095;36;19981;-61
2022/06/17 10:54:00;;;;;;;;;;;;;;;27.37;62.60;102205.94;2614015;31;19946;-60
2022/06/17 10:56:29;;;;;;;;;;;;;;;27.39;64.02;102205.72;2611690;36;20348;-59
2022/06/17 10:58:59;;;;;;;;;;;;;;;27.32;61.37;102199.31;2612784;31;19977;-58
2022/06/17 11:01:28;;;;;;;;;;;;;;;26.74;59.35;102192.56;2612806;36;20401;-58
2022/06/17 11:04:12;;;;;;;;;;;;;;;27.10;60.91;102185.75;2612707;36;19974;-61
2022/06/17 11:06:48;;;;;;;;;;;;;;;27.38;62.74;102195.72;2610973;36;19981;-60
2022/06/17 11:09:23;;;;;;;;;;;;;;;27.48;55.99;102196.13;2613691;36;19955;-59
2022/06/17 11:12:08;;;;;;;;;;;;;;;27.22;57.13;102195.09;2613616;36;19946;-58
2022/06/17 11:14:38;;;;;;;;;;;;;;;27.52;54.34;102197.38;2613316;36;20340;-61
2022/06/17 11:17:14;;;;;;;;;;;;;;;27.72;55.28;102202.00;2613870;36;19974;-60
2022/06/17 11:19:44;;;;;;;;;;;;;;;27.47;54.29;102204.63;2613353;36;19970;-59
2022/06/17 11:22:19;;;;;;;;;;;;;;;27.22;52.33;102184.03;2613163;31;20435;-61
2022/06/17 11:24:54;;;;;;;;;;;;;;;27.89;54.55;102180.25;2614029;31;20010;-59
2022/06/17 11:27:28;;;;;;;;;;;;;;;28.05;51.51;102170.63;2612750;36;20329;-65
2022/06/17 11:29:57;;;;;;;;;;;;;;;27.62;52.93;102163.75;2614061;36;19989;-59
2022/06/17 11:32:30;;;;;;;;;;;;;;;27.76;51.65;102159.00;2613098;36;19946;-59
2022/06/17 11:34:59;;;;;;;;;;;;;;;27.85;52.33;102156.84;2613693;36;20038;-59
2022/06/17 11:37:29;;;;;;;;;;;;;;;28.43;51.08;102169.69;2613108;31;19950;-59
2022/06/17 11:40:12;;;;;;;;;;;;;;;28.05;54.54;102156.78;2607241;36;20522;-60
2022/06/17 11:42:49;;;;;;;;;;;;;;;28.17;54.38;102143.06;2612705;36;20414;-60
2022/06/17 11:45:19;;;;;;;;;;;;;;;28.11;48.61;102134.56;2612417;36;19954;-60
2022/06/17 11:47:49;;;;;;;;;;;;;;;28.28;54.93;102134.03;2613754;36;20321;-59
2022/06/17 11:50:20;;;;;;;;;;;;;;;27.99;50.81;102138.25;2606733;36;19946;-61
2022/06/17 11:52:49;;;;;;;;;;;;;;;27.95;49.57;102141.44;2612720;36;20344;-60
2022/06/17 11:55:20;;;;;;;;;;;;;;;28.30;48.55;102127.22;2613403;36;20420;-62
2022/06/17 11:57:54;;;;;;;;;;;;;;;28.62;50.80;102116.13;2612932;36;19950;-62
2022/06/17 12:00:25;;;;;;;;;;;;;;;28.75;46.82;102117.06;2613439;36;19986;-63
2022/06/17 12:02:58;;;;;;;;;;;;;;;29.03;54.01;102105.47;2613783;36;19993;-60
2022/06/17 12:05:27;;;;;;;;;;;;;;;28.34;51.78;102105.44;2613026;36;20421;-61
2022/06/17 12:07:58;;;;;;;;;;;;;;;28.66;51.66;102097.94;2613227;36;19950;-63
2022/06/17 12:10:35;;;;;;;;;;;;;;;28.93;51.45;102108.78;2613245;36;19998;-59
2022/06/17 12:13:05;;;;;;;;;;;;;;;28.73;48.37;102097.91;2614318;31;19950;-61
2022/06/17 12:15:37;;;;;;;;;;;;;;;29.25;46.84;102108.66;2613170;36;19947;-59
2022/06/17 12:18:06;;;;;;;;;;;;;;;28.96;47.98;102107.47;2613070;36;19954;-59
2022/06/17 12:20:39;;;;;;;;;;;;;;;29.04;49.68;102106.34;2613808;36;19961;-64
2022/06/17 12:23:11;;;;;;;;;;;;;;;29.50;48.98;102104.97;2614471;31;19981;-61
2022/06/17 12:25:46;;;;;;;;;;;;;;;29.06;49.96;102112.50;2612430;36;19947;-61
2022/06/17 12:28:19;;;;;;;;;;;;;;;29.24;50.66;102115.31;2612926;36;19950;-62
2022/06/17 12:30:51;;;;;;;;;;;;;;;28.73;46.62;102114.53;2612219;36;19950;-69
2022/06/17 12:33:24;;;;;;;;;;;;;;;29.17;49.44;102108.97;2613122;31;20380;-59
2022/06/17 12:35:55;;;;;;;;;;;;;;;29.18;51.82;102099.56;2612984;36;19970;-60
2022/06/17 12:38:28;;;;;;;;;;;;;;;29.21;47.39;102103.78;2612332;36;20337;-63
2022/06/17 12:41:03;;;;;;;;;;;;;;;28.85;49.30;102098.00;2613691;36;19982;-61
2022/06/17 12:43:36;;;;;;;;;;;;;;;28.87;51.52;102095.84;2613258;36;19950;-61
2022/06/17 12:46:05;;;;;;;;;;;;;;;29.52;49.91;102098.09;2613126;36;20456;-60
2022/06/17 12:48:38;;;;;;;;;;;;;;;29.34;48.32;102093.44;2613773;36;20494;-59
2022/06/17 12:53:58;;;;;;;;;;;;;;;28.91;48.55;102093.47;2613303;36;19946;-60
2022/06/17 12:56:36;;;;;;;;;;;;;;;28.85;49.99;102092.44;2613588;36;19947;-64
2022/06/17 12:59:19;;;;;;;;;;;;;;;29.18;50.14;102086.56;2607006;31;19977;-61
2022/06/17 13:01:53;;;;;;;;;;;;;;;29.63;49.20;102082.59;2613586;36;20485;-60